sensor_id;sensor_type;location;lat;lon;timestamp;pressure;altitude;pressure_sealevel;temperature;humidity
65685;BME280;52405;50.844;-1.062;2023-02-11T00:00:39;103818.16;;;10.72;68.89
65685;BME280;52405;50.844;-1.062;2023-02-11T00:03:05;103801.00;;;10.64;68.75
65685;BME280;52405;50.844;-1.062;2023-02-11T00:05:31;103818.81;;;10.69;69.00
65685;BME280;52405;50.844;-1.062;2023-02-11T00:07:59;103814.13;;;10.65;68.86
65685;BME280;52405;50.844;-1.062;2023-02-11T00:10:25;103821.03;;;10.65;69.12
65685;BME280;52405;50.844;-1.062;2023-02-11T00:12:52;103818.56;;;10.66;68.96
65685;BME280;52405;50.844;-1.062;2023-02-11T00:15:18;103823.75;;;10.66;68.86
65685;BME280;52405;50.844;-1.062;2023-02-11T00:17:45;103816.34;;;10.60;68.28
65685;BME280;52405;50.844;-1.062;2023-02-11T00:20:10;103815.19;;;10.57;68.93
65685;BME280;52405;50.844;-1.062;2023-02-11T00:22:36;103806.84;;;10.51;68.86
65685;BME280;52405;50.844;-1.062;2023-02-11T00:25:01;103820.38;;;10.57;68.83
65685;BME280;52405;50.844;-1.062;2023-02-11T00:27:27;103818.28;;;10.53;69.22
65685;BME280;52405;50.844;-1.062;2023-02-11T00:29:53;103811.81;;;10.48;68.71
65685;BME280;52405;50.844;-1.062;2023-02-11T00:32:18;103821.13;;;10.46;68.93
65685;BME280;52405;50.844;-1.062;2023-02-11T00:34:46;103822.44;;;10.40;69.27
65685;BME280;52405;50.844;-1.062;2023-02-11T00:37:12;103811.63;;;10.36;69.00
65685;BME280;52405;50.844;-1.062;2023-02-11T00:39:38;103803.69;;;10.24;68.83
65685;BME280;52405;50.844;-1.062;2023-02-11T00:42:03;103804.16;;;10.20;68.91
65685;BME280;52405;50.844;-1.062;2023-02-11T00:44:29;103823.03;;;10.28;69.47
65685;BME280;52405;50.844;-1.062;2023-02-11T00:46:57;103820.31;;;10.26;69.76
65685;BME280;52405;50.844;-1.062;2023-02-11T00:49:22;103822.09;;;10.27;69.95
65685;BME280;52405;50.844;-1.062;2023-02-11T00:51:49;103789.47;;;10.10;69.61
65685;BME280;52405;50.844;-1.062;2023-02-11T00:54:14;103808.72;;;10.22;69.46
65685;BME280;52405;50.844;-1.062;2023-02-11T00:56:40;103809.91;;;10.26;70.03
65685;BME280;52405;50.844;-1.062;2023-02-11T00:59:05;103817.34;;;10.32;69.92
65685;BME280;52405;50.844;-1.062;2023-02-11T01:01:31;103806.06;;;10.31;69.98
65685;BME280;52405;50.844;-1.062;2023-02-11T01:03:56;103812.31;;;10.33;69.82
65685;BME280;52405;50.844;-1.062;2023-02-11T01:06:22;103807.09;;;10.33;70.20
65685;BME280;52405;50.844;-1.062;2023-02-11T01:08:47;103815.94;;;10.35;70.19
65685;BME280;52405;50.844;-1.062;2023-02-11T01:11:16;103816.22;;;10.38;69.96
65685;BME280;52405;50.844;-1.062;2023-02-11T01:13:44;103791.88;;;10.28;70.33
65685;BME280;52405;50.844;-1.062;2023-02-11T01:16:13;103797.75;;;10.35;69.73
65685;BME280;52405;50.844;-1.062;2023-02-11T01:18:41;103820.09;;;10.44;69.73
65685;BME280;52405;50.844;-1.062;2023-02-11T01:21:10;103812.28;;;10.44;70.36
65685;BME280;52405;50.844;-1.062;2023-02-11T01:23:41;103808.28;;;10.47;70.08
65685;BME280;52405;50.844;-1.062;2023-02-11T01:26:06;103806.47;;;10.46;70.35
65685;BME280;52405;50.844;-1.062;2023-02-11T01:28:32;103803.34;;;10.50;70.03
65685;BME280;52405;50.844;-1.062;2023-02-11T01:30:59;103800.88;;;10.52;70.22
65685;BME280;52405;50.844;-1.062;2023-02-11T01:33:28;103794.78;;;10.51;69.88
65685;BME280;52405;50.844;-1.062;2023-02-11T01:35:59;103784.50;;;10.53;70.22
65685;BME280;52405;50.844;-1.062;2023-02-11T01:38:25;103779.06;;;10.50;70.18
65685;BME280;52405;50.844;-1.062;2023-02-11T01:40:56;103797.47;;;10.53;69.85
65685;BME280;52405;50.844;-1.062;2023-02-11T01:43:24;103781.88;;;10.53;70.19
65685;BME280;52405;50.844;-1.062;2023-02-11T01:48:41;103785.53;;;10.55;69.78
65685;BME280;52405;50.844;-1.062;2023-02-11T01:51:11;103787.50;;;10.57;69.93
65685;BME280;52405;50.844;-1.062;2023-02-11T01:53:38;103791.13;;;10.59;69.96
65685;BME280;52405;50.844;-1.062;2023-02-11T01:56:25;103786.84;;;10.60;69.52
65685;BME280;52405;50.844;-1.062;2023-02-11T01:59:14;103785.28;;;10.62;69.70
65685;BME280;52405;50.844;-1.062;2023-02-11T02:01:45;103783.69;;;10.64;69.20
65685;BME280;52405;50.844;-1.062;2023-02-11T02:04:18;103780.47;;;10.67;69.74
65685;BME280;52405;50.844;-1.062;2023-02-11T02:06:50;103768.66;;;10.70;70.03
65685;BME280;52405;50.844;-1.062;2023-02-11T02:09:27;103764.06;;;10.68;69.79
65685;BME280;52405;50.844;-1.062;2023-02-11T02:11:53;103767.09;;;10.72;69.46
65685;BME280;52405;50.844;-1.062;2023-02-11T02:14:19;103770.34;;;10.70;69.04
65685;BME280;52405;50.844;-1.062;2023-02-11T02:16:45;103786.31;;;10.74;69.40
65685;BME280;52405;50.844;-1.062;2023-02-11T02:27:34;103774.34;;;10.76;69.19
65685;BME280;52405;50.844;-1.062;2023-02-11T02:30:11;103760.59;;;10.77;68.94
65685;BME280;52405;50.844;-1.062;2023-02-11T02:32:51;103759.78;;;10.78;69.09
65685;BME280;52405;50.844;-1.062;2023-02-11T02:35:33;103763.41;;;10.80;69.62
65685;BME280;52405;50.844;-1.062;2023-02-11T02:38:26;103769.91;;;10.86;69.34
65685;BME280;52405;50.844;-1.062;2023-02-11T02:40:59;103748.63;;;10.79;69.24
65685;BME280;52405;50.844;-1.062;2023-02-11T02:43:27;103766.28;;;10.84;69.12
65685;BME280;52405;50.844;-1.062;2023-02-11T02:45:53;103766.78;;;10.90;68.62
65685;BME280;52405;50.844;-1.062;2023-02-11T02:48:27;103765.88;;;10.89;68.72
65685;BME280;52405;50.844;-1.062;2023-02-11T02:53:59;103732.38;;;10.72;68.71
65685;BME280;52405;50.844;-1.062;2023-02-11T02:56:56;103752.75;;;10.88;69.13
65685;BME280;52405;50.844;-1.062;2023-02-11T03:02:16;103752.75;;;10.88;68.85
65685;BME280;52405;50.844;-1.062;2023-02-11T03:07:22;103753.78;;;10.90;68.68
65685;BME280;52405;50.844;-1.062;2023-02-11T03:12:35;103741.31;;;10.86;68.40
65685;BME280;52405;50.844;-1.062;2023-02-11T03:15:05;103714.19;;;10.72;69.06
65685;BME280;52405;50.844;-1.062;2023-02-11T03:17:33;103723.16;;;10.75;68.53
65685;BME280;52405;50.844;-1.062;2023-02-11T03:20:03;103736.91;;;10.85;68.91
65685;BME280;52405;50.844;-1.062;2023-02-11T03:22:39;103741.31;;;10.86;68.34
65685;BME280;52405;50.844;-1.062;2023-02-11T03:25:05;103737.16;;;10.88;68.38
65685;BME280;52405;50.844;-1.062;2023-02-11T03:30:15;103743.50;;;10.91;68.49
65685;BME280;52405;50.844;-1.062;2023-02-11T03:33:07;103716.63;;;10.80;68.58
65685;BME280;52405;50.844;-1.062;2023-02-11T03:35:44;103730.38;;;10.90;68.39
65685;BME280;52405;50.844;-1.062;2023-02-11T03:38:18;103683.00;;;10.61;67.96
65685;BME280;52405;50.844;-1.062;2023-02-11T03:40:48;103729.34;;;10.88;67.72
65685;BME280;52405;50.844;-1.062;2023-02-11T03:43:20;103739.75;;;10.88;68.13
65685;BME280;52405;50.844;-1.062;2023-02-11T03:45:51;103724.00;;;10.86;68.08
65685;BME280;52405;50.844;-1.062;2023-02-11T03:48:24;103738.09;;;10.88;68.34
65685;BME280;52405;50.844;-1.062;2023-02-11T03:50:54;103737.81;;;10.85;67.98
65685;BME280;52405;50.844;-1.062;2023-02-11T03:53:24;103740.41;;;10.85;68.06
65685;BME280;52405;50.844;-1.062;2023-02-11T03:55:55;103741.09;;;10.83;67.99
65685;BME280;52405;50.844;-1.062;2023-02-11T03:58:24;103732.22;;;10.80;67.59
65685;BME280;52405;50.844;-1.062;2023-02-11T04:00:52;103746.91;;;10.90;68.13
65685;BME280;52405;50.844;-1.062;2023-02-11T04:03:17;103742.22;;;10.86;67.95
65685;BME280;52405;50.844;-1.062;2023-02-11T04:05:43;103754.19;;;10.94;68.00
65685;BME280;52405;50.844;-1.062;2023-02-11T04:08:08;103742.22;;;10.86;67.31
65685;BME280;52405;50.844;-1.062;2023-02-11T04:10:34;103758.59;;;10.95;67.50
65685;BME280;52405;50.844;-1.062;2023-02-11T04:12:59;103764.72;;;10.96;67.72
65685;BME280;52405;50.844;-1.062;2023-02-11T04:15:27;103739.38;;;10.83;67.14
65685;BME280;52405;50.844;-1.062;2023-02-11T04:17:53;103767.03;;;10.93;67.68
65685;BME280;52405;50.844;-1.062;2023-02-11T04:20:19;103773.41;;;10.96;67.48
65685;BME280;52405;50.844;-1.062;2023-02-11T04:22:47;103760.94;;;10.92;67.20
65685;BME280;52405;50.844;-1.062;2023-02-11T04:25:12;103753.41;;;10.85;67.34
65685;BME280;52405;50.844;-1.062;2023-02-11T04:27:40;103770.44;;;10.92;66.91
65685;BME280;52405;50.844;-1.062;2023-02-11T04:30:07;103761.09;;;10.84;67.49
65685;BME280;52405;50.844;-1.062;2023-02-11T04:32:33;103754.09;;;10.83;67.09
65685;BME280;52405;50.844;-1.062;2023-02-11T04:35:00;103767.44;;;10.87;66.98
65685;BME280;52405;50.844;-1.062;2023-02-11T04:37:27;103772.25;;;10.93;66.96
65685;BME280;52405;50.844;-1.062;2023-02-11T04:39:52;103773.81;;;10.91;66.94
65685;BME280;52405;50.844;-1.062;2023-02-11T04:42:17;103774.09;;;10.94;67.26
65685;BME280;52405;50.844;-1.062;2023-02-11T04:44:45;103767.72;;;10.90;67.24
65685;BME280;52405;50.844;-1.062;2023-02-11T04:47:11;103777.72;;;10.96;67.14
65685;BME280;52405;50.844;-1.062;2023-02-11T04:49:38;103760.69;;;10.89;66.80
65685;BME280;52405;50.844;-1.062;2023-02-11T04:52:03;103758.63;;;10.85;66.26
65685;BME280;52405;50.844;-1.062;2023-02-11T04:54:29;103783.69;;;10.95;66.65
65685;BME280;52405;50.844;-1.062;2023-02-11T04:56:54;103787.22;;;10.95;67.08
65685;BME280;52405;50.844;-1.062;2023-02-11T04:59:20;103770.19;;;10.89;66.80
65685;BME280;52405;50.844;-1.062;2023-02-11T05:01:47;103748.34;;;10.76;66.99
65685;BME280;52405;50.844;-1.062;2023-02-11T05:04:16;103775.88;;;10.95;66.86
65685;BME280;52405;50.844;-1.062;2023-02-11T05:06:41;103785.66;;;10.97;67.01
65685;BME280;52405;50.844;-1.062;2023-02-11T05:09:08;103765.13;;;10.90;66.58
65685;BME280;52405;50.844;-1.062;2023-02-11T05:11:36;103784.84;;;10.98;66.85
65685;BME280;52405;50.844;-1.062;2023-02-11T05:14:04;103786.41;;;10.96;66.95
65685;BME280;52405;50.844;-1.062;2023-02-11T05:16:30;103784.97;;;11.00;66.48
65685;BME280;52405;50.844;-1.062;2023-02-11T05:18:55;103789.16;;;10.98;66.50
65685;BME280;52405;50.844;-1.062;2023-02-11T05:21:23;103757.03;;;10.77;66.35
65685;BME280;52405;50.844;-1.062;2023-02-11T05:23:51;103802.28;;;10.99;66.54
65685;BME280;52405;50.844;-1.062;2023-02-11T05:26:17;103779.56;;;10.87;66.39
65685;BME280;52405;50.844;-1.062;2023-02-11T05:28:43;103790.19;;;11.00;66.40
65685;BME280;52405;50.844;-1.062;2023-02-11T05:31:09;103799.81;;;11.01;66.62
65685;BME280;52405;50.844;-1.062;2023-02-11T05:33:35;103770.94;;;10.88;66.49
65685;BME280;52405;50.844;-1.062;2023-02-11T05:36:06;103792.91;;;11.02;66.93
65685;BME280;52405;50.844;-1.062;2023-02-11T05:38:33;103784.84;;;10.98;66.52
65685;BME280;52405;50.844;-1.062;2023-02-11T05:40:58;103773.94;;;10.92;66.27
65685;BME280;52405;50.844;-1.062;2023-02-11T05:43:24;103769.38;;;10.90;66.57
65685;BME280;52405;50.844;-1.062;2023-02-11T05:45:52;103792.00;;;11.01;66.52
65685;BME280;52405;50.844;-1.062;2023-02-11T05:48:17;103752.78;;;10.77;66.36
65685;BME280;52405;50.844;-1.062;2023-02-11T05:50:43;103795.50;;;11.02;66.30
65685;BME280;52405;50.844;-1.062;2023-02-11T05:53:09;103770.06;;;10.87;66.63
65685;BME280;52405;50.844;-1.062;2023-02-11T05:55:35;103784.72;;;10.97;66.72
65685;BME280;52405;50.844;-1.062;2023-02-11T05:58:03;103794.63;;;11.01;66.25
65685;BME280;52405;50.844;-1.062;2023-02-11T06:00:29;103793.44;;;10.97;65.95
65685;BME280;52405;50.844;-1.062;2023-02-11T06:02:55;103797.63;;;10.95;65.85
65685;BME280;52405;50.844;-1.062;2023-02-11T06:05:20;103780.84;;;10.92;66.13
65685;BME280;52405;50.844;-1.062;2023-02-11T06:07:46;103780.44;;;10.87;66.23
65685;BME280;52405;50.844;-1.062;2023-02-11T06:10:12;103794.47;;;10.99;66.38
65685;BME280;52405;50.844;-1.062;2023-02-11T06:12:38;103775.66;;;10.92;66.41
65685;BME280;52405;50.844;-1.062;2023-02-11T06:15:04;103790.59;;;11.05;65.86
65685;BME280;52405;50.844;-1.062;2023-02-11T06:17:29;103790.69;;;11.06;66.23
65685;BME280;52405;50.844;-1.062;2023-02-11T06:19:59;103769.50;;;10.91;65.64
65685;BME280;52405;50.844;-1.062;2023-02-11T06:22:25;103799.53;;;11.08;65.58
65685;BME280;52405;50.844;-1.062;2023-02-11T06:24:51;103800.59;;;11.10;65.89
65685;BME280;52405;50.844;-1.062;2023-02-11T06:27:17;103776.16;;;10.98;66.16
65685;BME280;52405;50.844;-1.062;2023-02-11T06:29:43;103807.59;;;11.11;65.68
65685;BME280;52405;50.844;-1.062;2023-02-11T06:32:12;103803.19;;;11.10;65.52
65685;BME280;52405;50.844;-1.062;2023-02-11T06:34:37;103811.88;;;11.11;65.31
65685;BME280;52405;50.844;-1.062;2023-02-11T06:37:03;103797.03;;;11.10;65.36
65685;BME280;52405;50.844;-1.062;2023-02-11T06:39:29;103801.84;;;11.15;65.75
65685;BME280;52405;50.844;-1.062;2023-02-11T06:41:55;103787.31;;;11.07;65.30
65685;BME280;52405;50.844;-1.062;2023-02-11T06:44:20;103798.75;;;11.19;65.37
65685;BME280;52405;50.844;-1.062;2023-02-11T06:46:46;103793.53;;;11.19;65.11
65685;BME280;52405;50.844;-1.062;2023-02-11T06:49:14;103795.09;;;11.17;65.28
65685;BME280;52405;50.844;-1.062;2023-02-11T06:51:42;103788.06;;;11.16;64.86
65685;BME280;52405;50.844;-1.062;2023-02-11T06:54:07;103797.03;;;11.20;64.87
65685;BME280;52405;50.844;-1.062;2023-02-11T06:56:33;103787.41;;;11.19;64.59
65685;BME280;52405;50.844;-1.062;2023-02-11T06:58:59;103769.38;;;11.10;64.57
65685;BME280;52405;50.844;-1.062;2023-02-11T07:01:29;103777.66;;;11.16;65.00
65685;BME280;52405;50.844;-1.062;2023-02-11T07:03:57;103804.44;;;11.26;64.47
65685;BME280;52405;50.844;-1.062;2023-02-11T07:06:24;103818.75;;;11.31;64.88
65685;BME280;52405;50.844;-1.062;2023-02-11T07:08:55;103809.63;;;11.26;64.72
65685;BME280;52405;50.844;-1.062;2023-02-11T07:11:26;103816.91;;;11.30;64.69
65685;BME280;52405;50.844;-1.062;2023-02-11T07:13:54;103773.81;;;11.01;64.51
65685;BME280;52405;50.844;-1.062;2023-02-11T07:16:20;103812.91;;;11.23;64.28
65685;BME280;52405;50.844;-1.062;2023-02-11T07:18:47;103820.94;;;11.26;64.51
65685;BME280;52405;50.844;-1.062;2023-02-11T07:21:16;103826.28;;;11.28;64.83
65685;BME280;52405;50.844;-1.062;2023-02-11T07:23:42;103832.16;;;11.25;64.35
65685;BME280;52405;50.844;-1.062;2023-02-11T07:26:15;103836.56;;;11.26;64.76
65685;BME280;52405;50.844;-1.062;2023-02-11T07:28:42;103835.91;;;11.29;64.71
65685;BME280;52405;50.844;-1.062;2023-02-11T07:31:16;103832.50;;;11.30;64.44
65685;BME280;52405;50.844;-1.062;2023-02-11T07:33:42;103827.31;;;11.30;64.66
65685;BME280;52405;50.844;-1.062;2023-02-11T07:36:11;103828.59;;;11.35;64.26
65685;BME280;52405;50.844;-1.062;2023-02-11T07:38:38;103809.63;;;11.26;64.17
65685;BME280;52405;50.844;-1.062;2023-02-11T07:41:09;103835.09;;;11.40;64.29
65685;BME280;52405;50.844;-1.062;2023-02-11T07:43:36;103836.13;;;11.42;64.29
65685;BME280;52405;50.844;-1.062;2023-02-11T07:46:03;103813.75;;;11.34;64.05
65685;BME280;52405;50.844;-1.062;2023-02-11T07:48:29;103820.53;;;11.42;64.33
65685;BME280;52405;50.844;-1.062;2023-02-11T07:50:54;103836.88;;;11.51;63.88
65685;BME280;52405;50.844;-1.062;2023-02-11T07:53:20;103838.72;;;11.52;63.80
65685;BME280;52405;50.844;-1.062;2023-02-11T07:55:45;103842.22;;;11.53;63.77
65685;BME280;52405;50.844;-1.062;2023-02-11T07:58:11;103851.75;;;11.52;63.71
65685;BME280;52405;50.844;-1.062;2023-02-11T08:00:36;103843.94;;;11.52;64.42
65685;BME280;52405;50.844;-1.062;2023-02-11T08:03:05;103853.53;;;11.53;64.39
65685;BME280;52405;50.844;-1.062;2023-02-11T08:05:32;103850.81;;;11.52;64.39
65685;BME280;52405;50.844;-1.062;2023-02-11T08:07:58;103846.28;;;11.49;64.35
65685;BME280;52405;50.844;-1.062;2023-02-11T08:10:25;103863.81;;;11.62;64.40
65685;BME280;52405;50.844;-1.062;2023-02-11T08:12:51;103853.53;;;11.64;64.45
65685;BME280;52405;50.844;-1.062;2023-02-11T08:15:18;103857.28;;;11.67;63.72
65685;BME280;52405;50.844;-1.062;2023-02-11T08:17:43;103846.47;;;11.63;64.28
65685;BME280;52405;50.844;-1.062;2023-02-11T08:20:11;103843.59;;;11.70;63.52
65685;BME280;52405;50.844;-1.062;2023-02-11T08:22:36;103847.22;;;11.72;63.87
65685;BME280;52405;50.844;-1.062;2023-02-11T08:25:05;103789.00;;;11.49;63.98
65685;BME280;52405;50.844;-1.062;2023-02-11T08:27:30;103833.78;;;11.77;64.39
65685;BME280;52405;50.844;-1.062;2023-02-11T08:29:58;103831.31;;;11.79;63.91
65685;BME280;52405;50.844;-1.062;2023-02-11T08:32:25;103828.84;;;11.81;63.63
65685;BME280;52405;50.844;-1.062;2023-02-11T08:34:53;103842.13;;;11.84;63.39
65685;BME280;52405;50.844;-1.062;2023-02-11T08:37:21;103837.00;;;11.85;63.64
65685;BME280;52405;50.844;-1.062;2023-02-11T08:39:49;103830.25;;;11.87;63.95
65685;BME280;52405;50.844;-1.062;2023-02-11T08:42:17;103824.25;;;11.88;64.26
65685;BME280;52405;50.844;-1.062;2023-02-11T08:44:45;103832.34;;;11.91;63.79
65685;BME280;52405;50.844;-1.062;2023-02-11T08:47:10;103812.66;;;11.85;64.21
65685;BME280;52405;50.844;-1.062;2023-02-11T08:49:36;103830.75;;;11.93;63.63
65685;BME280;52405;50.844;-1.062;2023-02-11T08:52:01;103842.81;;;12.03;64.09
65685;BME280;52405;50.844;-1.062;2023-02-11T08:54:28;103846.31;;;12.04;63.97
65685;BME280;52405;50.844;-1.062;2023-02-11T08:56:54;103832.41;;;12.03;63.74
65685;BME280;52405;50.844;-1.062;2023-02-11T08:59:20;103832.28;;;12.02;63.39
65685;BME280;52405;50.844;-1.062;2023-02-11T09:01:45;103839.44;;;12.04;63.54
65685;BME280;52405;50.844;-1.062;2023-02-11T09:04:12;103839.78;;;12.09;63.67
65685;BME280;52405;50.844;-1.062;2023-02-11T09:06:37;103853.75;;;12.09;63.51
65685;BME280;52405;50.844;-1.062;2023-02-11T09:09:09;103858.28;;;12.12;63.38
65685;BME280;52405;50.844;-1.062;2023-02-11T09:11:36;103852.38;;;12.14;63.62
65685;BME280;52405;50.844;-1.062;2023-02-11T09:14:04;103848.47;;;12.20;63.33
65685;BME280;52405;50.844;-1.062;2023-02-11T09:16:34;103845.22;;;12.22;63.01
65685;BME280;52405;50.844;-1.062;2023-02-11T09:19:03;103837.59;;;12.25;63.16
65685;BME280;52405;50.844;-1.062;2023-02-11T09:21:29;103837.88;;;12.28;62.97
65685;BME280;52405;50.844;-1.062;2023-02-11T09:23:55;103838.00;;;12.30;63.26
65685;BME280;52405;50.844;-1.062;2023-02-11T09:26:30;103838.22;;;12.33;62.94
65685;BME280;52405;50.844;-1.062;2023-02-11T09:28:59;103846.28;;;12.36;62.74
65685;BME280;52405;50.844;-1.062;2023-02-11T09:31:26;103847.44;;;12.40;62.82
65685;BME280;52405;50.844;-1.062;2023-02-11T09:33:55;103841.66;;;12.44;63.18
65685;BME280;52405;50.844;-1.062;2023-02-11T09:36:24;103847.25;;;12.48;63.04
65685;BME280;52405;50.844;-1.062;2023-02-11T09:38:50;103848.53;;;12.53;63.04
65685;BME280;52405;50.844;-1.062;2023-02-11T09:43:51;103847.03;;;12.57;62.52
65685;BME280;52405;50.844;-1.062;2023-02-11T09:46:18;103856.69;;;12.58;62.39
65685;BME280;52405;50.844;-1.062;2023-02-11T09:48:47;103859.41;;;12.60;62.08
65685;BME280;52405;50.844;-1.062;2023-02-11T09:51:35;103850.13;;;12.63;61.97
65685;BME280;52405;50.844;-1.062;2023-02-11T09:54:12;103841.75;;;12.67;62.44
65685;BME280;52405;50.844;-1.062;2023-02-11T09:56:41;103858.91;;;12.76;62.85
65685;BME280;52405;50.844;-1.062;2023-02-11T09:59:12;103828.69;;;12.67;62.07
65685;BME280;52405;50.844;-1.062;2023-02-11T10:23:26;103873.00;;;13.35;59.87
65685;BME280;52405;50.844;-1.062;2023-02-11T10:25:54;103875.72;;;13.37;60.31
65685;BME280;52405;50.844;-1.062;2023-02-11T10:28:30;103870.72;;;13.40;59.50
65685;BME280;52405;50.844;-1.062;2023-02-11T10:31:00;103869.16;;;13.42;59.47
65685;BME280;52405;50.844;-1.062;2023-02-11T10:33:38;103857.56;;;13.38;60.10
65685;BME280;52405;50.844;-1.062;2023-02-11T10:36:05;103868.78;;;13.49;60.01
65685;BME280;52405;50.844;-1.062;2023-02-11T10:38:31;103878.44;;;13.50;59.44
65685;BME280;52405;50.844;-1.062;2023-02-11T10:40:58;103879.22;;;13.49;59.47
65685;BME280;52405;50.844;-1.062;2023-02-11T10:43:26;103875.38;;;13.44;59.22
65685;BME280;52405;50.844;-1.062;2023-02-11T10:45:54;103873.91;;;13.47;59.62
65685;BME280;52405;50.844;-1.062;2023-02-11T10:48:45;103874.00;;;13.49;59.29
65685;BME280;52405;50.844;-1.062;2023-02-11T10:51:23;103875.72;;;13.48;59.30
65685;BME280;52405;50.844;-1.062;2023-02-11T10:54:14;103874.81;;;13.48;59.02
65685;BME280;52405;50.844;-1.062;2023-02-11T10:56:47;103876.03;;;13.41;58.95
65685;BME280;52405;50.844;-1.062;2023-02-11T10:59:34;103885.03;;;13.45;59.09
65685;BME280;52405;50.844;-1.062;2023-02-11T11:02:19;103881.63;;;13.46;59.42
65685;BME280;52405;50.844;-1.062;2023-02-11T11:04:46;103880.72;;;13.45;58.64
65685;BME280;52405;50.844;-1.062;2023-02-11T11:07:24;103873.09;;;13.48;58.29
65685;BME280;52405;50.844;-1.062;2023-02-11T11:09:54;103873.34;;;13.52;58.43
65685;BME280;52405;50.844;-1.062;2023-02-11T11:12:31;103885.03;;;13.57;58.93
65685;BME280;52405;50.844;-1.062;2023-02-11T11:15:13;103888.66;;;13.59;57.58
65685;BME280;52405;50.844;-1.062;2023-02-11T11:17:43;103888.66;;;13.59;57.92
65685;BME280;52405;50.844;-1.062;2023-02-11T11:20:21;103889.56;;;13.59;58.47
65685;BME280;52405;50.844;-1.062;2023-02-11T11:22:49;103880.94;;;13.60;57.65
65685;BME280;52405;50.844;-1.062;2023-02-11T11:25:26;103881.03;;;13.62;58.16
65685;BME280;52405;50.844;-1.062;2023-02-11T11:27:58;103873.00;;;13.59;57.68
65685;BME280;52405;50.844;-1.062;2023-02-11T11:30:37;103869.50;;;13.58;57.44
65685;BME280;52405;50.844;-1.062;2023-02-11T11:33:03;103865.03;;;13.57;57.53
65685;BME280;52405;50.844;-1.062;2023-02-11T11:35:30;103864.34;;;13.60;58.14
65685;BME280;52405;50.844;-1.062;2023-02-11T11:38:01;103870.50;;;13.60;57.85
65685;BME280;52405;50.844;-1.062;2023-02-11T11:40:30;103859.13;;;13.60;57.60
65685;BME280;52405;50.844;-1.062;2023-02-11T11:43:24;103866.31;;;13.62;57.03
65685;BME280;52405;50.844;-1.062;2023-02-11T11:45:54;103853.69;;;13.57;57.63
65685;BME280;52405;50.844;-1.062;2023-02-11T11:51:04;103866.75;;;13.68;56.59
65685;BME280;52405;50.844;-1.062;2023-02-11T11:56:01;103849.03;;;13.64;56.51
65685;BME280;52405;50.844;-1.062;2023-02-11T11:58:30;103842.09;;;13.65;56.40
65685;BME280;52405;50.844;-1.062;2023-02-11T12:03:30;103849.69;;;13.62;57.10
65685;BME280;52405;50.844;-1.062;2023-02-11T12:08:53;103835.28;;;13.43;57.08
65685;BME280;52405;50.844;-1.062;2023-02-11T12:11:25;103848.13;;;13.52;57.35
65685;BME280;52405;50.844;-1.062;2023-02-11T12:19:17;103844.25;;;13.47;56.81
65685;BME280;52405;50.844;-1.062;2023-02-11T12:27:14;103840.75;;;13.58;57.29
65685;BME280;52405;50.844;-1.062;2023-02-11T12:32:24;103835.06;;;13.64;56.21
65685;BME280;52405;50.844;-1.062;2023-02-11T12:40:35;103837.53;;;13.74;55.90
65685;BME280;52405;50.844;-1.062;2023-02-11T12:43:24;103833.34;;;13.76;55.88
65685;BME280;52405;50.844;-1.062;2023-02-11T12:52:13;103817.53;;;13.86;55.22
65685;BME280;52405;50.844;-1.062;2023-02-11T12:54:45;103814.94;;;13.86;54.83
65685;BME280;52405;50.844;-1.062;2023-02-11T12:57:22;103818.78;;;13.80;55.16
65685;BME280;52405;50.844;-1.062;2023-02-11T13:00:20;103813.84;;;13.71;54.63
65685;BME280;52405;50.844;-1.062;2023-02-11T13:03:04;103812.59;;;13.66;55.74
65685;BME280;52405;50.844;-1.062;2023-02-11T13:05:41;103805.53;;;13.65;55.37
65685;BME280;52405;50.844;-1.062;2023-02-11T13:08:18;103807.34;;;13.66;55.21
65685;BME280;52405;50.844;-1.062;2023-02-11T13:10:47;103812.00;;;13.70;55.13
65685;BME280;52405;50.844;-1.062;2023-02-11T13:13:20;103820.41;;;13.66;55.43
65685;BME280;52405;50.844;-1.062;2023-02-11T13:15:59;103811.44;;;13.62;55.11
65685;BME280;52405;50.844;-1.062;2023-02-11T13:24:12;103791.16;;;13.58;55.23
65685;BME280;52405;50.844;-1.062;2023-02-11T13:32:13;103789.38;;;13.82;55.57
65685;BME280;52405;50.844;-1.062;2023-02-11T13:37:25;103786.59;;;13.93;55.22
65685;BME280;52405;50.844;-1.062;2023-02-11T13:42:48;103779.59;;;13.92;54.82
65685;BME280;52405;50.844;-1.062;2023-02-11T13:48:24;103784.81;;;13.92;55.36
65685;BME280;52405;50.844;-1.062;2023-02-11T13:50:55;103775.03;;;13.89;55.06
65685;BME280;52405;50.844;-1.062;2023-02-11T13:53:22;103783.56;;;13.86;55.52
65685;BME280;52405;50.844;-1.062;2023-02-11T13:55:51;103780.63;;;13.82;55.05
65685;BME280;52405;50.844;-1.062;2023-02-11T13:58:34;103780.97;;;13.75;55.37
65685;BME280;52405;50.844;-1.062;2023-02-11T14:01:01;103771.94;;;13.69;55.14
65685;BME280;52405;50.844;-1.062;2023-02-11T14:03:28;103770.56;;;13.63;55.25
65685;BME280;52405;50.844;-1.062;2023-02-11T14:06:15;103773.09;;;13.49;55.23
65685;BME280;52405;50.844;-1.062;2023-02-11T14:11:51;103771.50;;;13.40;56.50
65685;BME280;52405;50.844;-1.062;2023-02-11T14:19:35;103783.53;;;13.26;55.89
65685;BME280;52405;50.844;-1.062;2023-02-11T14:27:10;103779.78;;;13.10;57.05
65685;BME280;52405;50.844;-1.062;2023-02-11T14:30:14;103770.47;;;13.02;56.68
65685;BME280;52405;50.844;-1.062;2023-02-11T14:32:56;103773.28;;;12.93;57.36
65685;BME280;52405;50.844;-1.062;2023-02-11T14:35:37;103770.31;;;12.77;57.19
65685;BME280;52405;50.844;-1.062;2023-02-11T14:41:09;103785.28;;;12.68;57.84
65685;BME280;52405;50.844;-1.062;2023-02-11T14:43:42;103783.91;;;12.61;57.92
65685;BME280;52405;50.844;-1.062;2023-02-11T14:46:09;103784.44;;;12.57;58.22
65685;BME280;52405;50.844;-1.062;2023-02-11T14:48:36;103782.28;;;12.51;58.23
65685;BME280;52405;50.844;-1.062;2023-02-11T14:51:14;103779.78;;;12.53;58.09
65685;BME280;52405;50.844;-1.062;2023-02-11T14:53:46;103792.50;;;12.60;58.28